Terminal Aerodrome Forecast
Issued by NWS

Home | Current Version | Previous Version | Text Only | Print | Product List | Glossary On
Versions: 1 2 3 4 5 6 7 8 9 10 11 12 13 14
000
FTUS43 KMQT 022332
TAFCMX
TAF
KCMX 022332Z 0300/0324 31003KT P6SM SKC
     FM030800 23006KT P6SM FEW200
     FM031200 24010KT P6SM VCSH OVC130
     FM031800 26013G20KT P6SM VCSH OVC050
     FM032000 29010G15KT P6SM VCSH BKN050
     FM032100 31009KT P6SM BKN060=

USA.gov is the U.S. government's official web portal to all federal, state and local government web resources and services.